Hildegaard — C6QU3 — position and weather

sailwx.info

Track history (hours):
 
Tides and Currents Weather Stations Pressure Air Temp Water Temp Dewpoint Dewpoint Depression Visibility Wind Speed Wind Dir Waves Ship Positions

Hildegaard

Last reported at 2017-Oct-20 12:23 UTC. Time now 2017-Oct-20 12:49 UTC.
Position N 52°22' E 001°51'.

Length 248 m; draft 8.5 m.

Type: Ship (hazmat cat A). MMSI: 308574000.

Date/timePositionNaut miles runAvg speedWind from/ knotsBaromVisibWave heightAir tempDewpointWater temp
2017-Oct-20 12:23N 52°22' E 001°51'0 0.0
2017-Oct-20 11:53N 52°22' E 001°51'0 0.0
2017-Oct-20 11:20N 52°22' E 001°51'0 0.4
2017-Oct-20 10:56N 52°22' E 001°51'0 0.2
2017-Oct-20 10:29N 52°22' E 001°51'0 0.1
2017-Oct-20 09:56N 52°22' E 001°51'0 0.0
2017-Oct-20 09:20N 52°22' E 001°51'0 0.1
2017-Oct-20 08:56N 52°22' E 001°51'0 0.0
2017-Oct-20 08:23N 52°22' E 001°51'0 0.2
2017-Oct-20 07:59N 52°22' E 001°51'0 0.3
2017-Oct-20 07:29N 52°22' E 001°51'0 0.1
2017-Oct-20 06:14N 52°23' E 001°51'0 0.5
2017-Oct-20 05:59N 52°23' E 001°51'0 0.2
2017-Oct-20 05:23N 52°23' E 001°51'0 0.2
2017-Oct-20 04:50N 52°23' E 001°51'0 0.2
2017-Oct-20 04:29N 52°23' E 001°51'0 0.0
2017-Oct-19 18:05N 52°22' E 001°51'0 0.1
2017-Oct-19 17:53N 52°22' E 001°51'0 0.0
2017-Oct-19 11:56N 52°22' E 001°51'0 0.1
2017-Oct-19 11:26N 52°22' E 001°51'0 0.2
2017-Oct-19 10:56N 52°22' E 001°51'0 0.2
2017-Oct-19 10:29N 52°22' E 001°51'0 0.1
2017-Oct-19 09:44N 52°22' E 001°51'0 0.0
2017-Oct-19 09:29N 52°22' E 001°51'0 0.0
2017-Oct-19 08:56N 52°22' E 001°51'0 0.0
2017-Oct-19 08:20N 52°22' E 001°51'0 0.0
2017-Oct-19 07:59N 52°22' E 001°51'0 0.0
2017-Oct-19 07:20N 52°22' E 001°51'0 0.1
2017-Oct-19 06:59N 52°22' E 001°51'0 0.0
2017-Oct-19 06:14N 52°22' E 001°51'0 0.0
2017-Oct-19 05:50N 52°22' E 001°51'0 0.2
2017-Oct-19 05:29N 52°22' E 001°51'0 0.2
2017-Oct-19 04:29N 52°22' E 001°51'0 0.1
2017-Oct-19 03:38N 52°22' E 001°51'0 0.0
2017-Oct-19 03:29N 52°22' E 001°51'7 4.1
2017-Oct-19 01:48N 52°26' E 002°01'4 0.2
2017-Oct-18 04:59N 52°27' E 002°07'0 0.1
2017-Oct-18 04:30N 52°27' E 002°07'0 0.3
2017-Oct-18 03:26N 52°28' E 002°07'0 0.0
2017-Oct-18 00:13N 52°28' E 002°07'10 1.3
2017-Oct-17 16:35N 52°19' E 002°02'1 5.2
2017-Oct-17 16:27N 52°19' E 002°01'5 4.3
2017-Oct-17 15:18N 52°23' E 001°56'1 2.8
2017-Oct-17 14:53N 52°23' E 001°54'1 1.7
2017-Oct-17 14:17N 52°24' E 001°53'1 3.1
2017-Oct-17 14:00N 52°23' E 001°52'1 1.1
2017-Oct-17 13:02N 52°22' E 001°52'0 0.0
2017-Oct-17 12:53N 52°22' E 001°52'0 0.0
2017-Oct-17 10:59N 52°22' E 001°52'0 0.1
2017-Oct-17 09:20N 52°22' E 001°52'0 0.5
2017-Oct-17 08:59N 52°22' E 001°52'0 0.1
2017-Oct-17 08:29N 52°22' E 001°52'0 0.0
2017-Oct-17 07:59N 52°22' E 001°52'0 0.0
2017-Oct-17 07:29N 52°22' E 001°52'0 0.3
2017-Oct-17 07:00N 52°22' E 001°52'135 7.8
2017-Oct-16 13:48N 54°23' E 000°14'412.5
2017-Oct-16 13:30N 54°24' E 000°08'612.6
2017-Oct-16 13:00N 54°27' W 000°02'612.6
2017-Oct-16 12:30N 54°29' W 000°12'612.5
2017-Oct-16 12:00N 54°32' W 000°22'28 1.0
2017-Oct-15 08:49N 54°38' W 001°10'4 4.9
2017-Oct-15 08:05N 54°41' W 001°07'2 8.7
2017-Oct-15 07:55N 54°42' W 001°06'2 4.0
2017-Oct-15 07:18N 54°45' W 001°06'2 3.8
2017-Oct-15 06:39N 54°47' W 001°08'1 5.4
2017-Oct-15 06:27N 54°48' W 001°09'0 0.7
2017-Oct-15 06:00N 54°48' W 001°09'0 0.1
2017-Oct-15 05:30N 54°48' W 001°09'0 0.1
2017-Oct-15 04:59N 54°48' W 001°09'0 0.0
2017-Oct-15 04:29N 54°48' W 001°09'0 0.0
2017-Oct-15 03:59N 54°48' W 001°09'0 0.0
2017-Oct-15 03:29N 54°48' W 001°09'0 0.0
2017-Oct-15 02:59N 54°48' W 001°09'0 0.0
2017-Oct-15 02:29N 54°48' W 001°09'0 0.0
2017-Oct-15 01:59N 54°48' W 001°09'0 0.0
2017-Oct-15 01:29N 54°48' W 001°09'0 0.0
2017-Oct-15 00:59N 54°48' W 001°09'0 0.0
2017-Oct-15 00:29N 54°48' W 001°09'0 0.1
2017-Oct-14 23:59N 54°48' W 001°09'0 0.1
2017-Oct-14 23:29N 54°48' W 001°09'0 0.1
2017-Oct-14 22:50N 54°48' W 001°09'0 0.1
2017-Oct-14 22:05N 54°48' W 001°09'0 0.1
2017-Oct-14 21:50N 54°48' W 001°09'1 3.0
2017-Oct-14 21:30N 54°48' W 001°08'3 5.5
2017-Oct-14 21:00N 54°48' W 001°03'3 6.0
2017-Oct-14 20:30N 54°49' W 000°58'3 5.9
2017-Oct-14 20:00N 54°49' W 000°53'3 5.6
2017-Oct-14 19:30N 54°50' W 000°48'3 5.6
2017-Oct-14 19:00N 54°50' W 000°43'3 5.4
2017-Oct-14 18:28N 54°51' W 000°38'2 3.7
2017-Oct-14 17:58N 54°52' W 000°35'1 2.5
2017-Oct-14 17:28N 54°53' W 000°34'2 4.1
2017-Oct-14 16:52N 54°54' W 000°30'  
2017-Oct-12 12:12N 57°23' E 007°37'3 8.7
2017-Oct-12 11:54N 57°25' E 007°41'15 8.7
2017-Oct-12 10:11N 57°31' E 008°06'2 9.0
2017-Oct-12 09:58N 57°32' E 008°10'19 9.1
2017-Oct-12 07:52N 57°37' E 008°44'60 4.8
2017-Oct-11 19:25N 57°53' E 010°32'2 4.2
2017-Oct-11 18:59N 57°53' E 010°35'2 4.5
2017-Oct-11 18:30N 57°52' E 010°38'2 4.4
2017-Oct-11 18:00N 57°50' E 010°41'2 4.9
2017-Oct-11 17:30N 57°49' E 010°45'3 5.0
2017-Oct-11 17:00N 57°47' E 010°48'8 0.5
2017-Oct-11 00:00N 57°39' E 010°42'0 0.0
2017-Oct-10 23:21N 57°39' E 010°42'0 0.0
2017-Oct-10 22:57N 57°39' E 010°42'0 0.0
2017-Oct-10 22:21N 57°39' E 010°42'0 0.0
2017-Oct-10 22:00N 57°39' E 010°42'0 0.0
2017-Oct-10 21:24N 57°39' E 010°42'0 0.0
2017-Oct-10 20:45N 57°39' E 010°42'0 0.1
2017-Oct-10 20:00N 57°39' E 010°42'0 0.0
2017-Oct-10 19:27N 57°39' E 010°42'0 0.0
2017-Oct-10 19:00N 57°39' E 010°41'0 0.1
2017-Oct-10 18:12N 57°40' E 010°41'0 0.1
2017-Oct-10 18:00N 57°40' E 010°41'0 0.1
2017-Oct-10 17:06N 57°40' E 010°41'0 0.1
2017-Oct-10 16:57N 57°40' E 010°41'0 0.0
2017-Oct-10 16:24N 57°40' E 010°41'0 0.0
2017-Oct-10 15:57N 57°40' E 010°41'0 0.0
2017-Oct-10 15:18N 57°40' E 010°41'0 0.0
2017-Oct-10 14:57N 57°40' E 010°41'0 0.0
2017-Oct-10 14:00N 57°40' E 010°41'0 0.0
2017-Oct-10 13:30N 57°40' E 010°41'0 0.0
2017-Oct-10 13:00N 57°40' E 010°41'  
Track history (hours):
 
Tides and Currents Weather Stations Pressure Air Temp Water Temp Dewpoint Dewpoint Depression Visibility Wind Speed Wind Dir Waves Ship Positions

Hildegaard

Last reported at 2017-Oct-20 12:23 UTC. Time now 2017-Oct-20 12:49 UTC.
Position N 52°22' E 001°51'.

Length 248 m; draft 8.5 m.

Type: Ship (hazmat cat A). MMSI: 308574000.

Date/timePositionNaut miles runAvg speedWind from/ knotsBaromVisibWave heightAir tempDewpointWater temp
2017-Oct-20 12:23N 52°22' E 001°51'0 0.0
2017-Oct-20 11:53N 52°22' E 001°51'0 0.0
2017-Oct-20 11:20N 52°22' E 001°51'0 0.4
2017-Oct-20 10:56N 52°22' E 001°51'0 0.2
2017-Oct-20 10:29N 52°22' E 001°51'0 0.1
2017-Oct-20 09:56N 52°22' E 001°51'0 0.0
2017-Oct-20 09:20N 52°22' E 001°51'0 0.1
2017-Oct-20 08:56N 52°22' E 001°51'0 0.0
2017-Oct-20 08:23N 52°22' E 001°51'0 0.2
2017-Oct-20 07:59N 52°22' E 001°51'0 0.3
2017-Oct-20 07:29N 52°22' E 001°51'0 0.1
2017-Oct-20 06:14N 52°23' E 001°51'0 0.5
2017-Oct-20 05:59N 52°23' E 001°51'0 0.2
2017-Oct-20 05:23N 52°23' E 001°51'0 0.2
2017-Oct-20 04:50N 52°23' E 001°51'0 0.2
2017-Oct-20 04:29N 52°23' E 001°51'0 0.0
2017-Oct-19 18:05N 52°22' E 001°51'0 0.1
2017-Oct-19 17:53N 52°22' E 001°51'0 0.0
2017-Oct-19 11:56N 52°22' E 001°51'0 0.1
2017-Oct-19 11:26N 52°22' E 001°51'0 0.2
2017-Oct-19 10:56N 52°22' E 001°51'0 0.2
2017-Oct-19 10:29N 52°22' E 001°51'0 0.1
2017-Oct-19 09:44N 52°22' E 001°51'0 0.0
2017-Oct-19 09:29N 52°22' E 001°51'0 0.0
2017-Oct-19 08:56N 52°22' E 001°51'0 0.0
2017-Oct-19 08:20N 52°22' E 001°51'0 0.0
2017-Oct-19 07:59N 52°22' E 001°51'0 0.0
2017-Oct-19 07:20N 52°22' E 001°51'0 0.1
2017-Oct-19 06:59N 52°22' E 001°51'0 0.0
2017-Oct-19 06:14N 52°22' E 001°51'0 0.0
2017-Oct-19 05:50N 52°22' E 001°51'0 0.2
2017-Oct-19 05:29N 52°22' E 001°51'0 0.2
2017-Oct-19 04:29N 52°22' E 001°51'0 0.1
2017-Oct-19 03:38N 52°22' E 001°51'0 0.0
2017-Oct-19 03:29N 52°22' E 001°51'7 4.1
2017-Oct-19 01:48N 52°26' E 002°01'4 0.2
2017-Oct-18 04:59N 52°27' E 002°07'0 0.1
2017-Oct-18 04:30N 52°27' E 002°07'0 0.3
2017-Oct-18 03:26N 52°28' E 002°07'0 0.0
2017-Oct-18 00:13N 52°28' E 002°07'10 1.3
2017-Oct-17 16:35N 52°19' E 002°02'1 5.2
2017-Oct-17 16:27N 52°19' E 002°01'5 4.3
2017-Oct-17 15:18N 52°23' E 001°56'1 2.8
2017-Oct-17 14:53N 52°23' E 001°54'1 1.7
2017-Oct-17 14:17N 52°24' E 001°53'1 3.1
2017-Oct-17 14:00N 52°23' E 001°52'1 1.1
2017-Oct-17 13:02N 52°22' E 001°52'0 0.0
2017-Oct-17 12:53N 52°22' E 001°52'0 0.0
2017-Oct-17 10:59N 52°22' E 001°52'0 0.1
2017-Oct-17 09:20N 52°22' E 001°52'0 0.5
2017-Oct-17 08:59N 52°22' E 001°52'0 0.1
2017-Oct-17 08:29N 52°22' E 001°52'0 0.0
2017-Oct-17 07:59N 52°22' E 001°52'0 0.0
2017-Oct-17 07:29N 52°22' E 001°52'0 0.3
2017-Oct-17 07:00N 52°22' E 001°52'135 7.8
2017-Oct-16 13:48N 54°23' E 000°14'412.5
2017-Oct-16 13:30N 54°24' E 000°08'612.6
2017-Oct-16 13:00N 54°27' W 000°02'612.6
2017-Oct-16 12:30N 54°29' W 000°12'612.5
2017-Oct-16 12:00N 54°32' W 000°22'28 1.0
2017-Oct-15 08:49N 54°38' W 001°10'4 4.9
2017-Oct-15 08:05N 54°41' W 001°07'2 8.7
2017-Oct-15 07:55N 54°42' W 001°06'2 4.0
2017-Oct-15 07:18N 54°45' W 001°06'2 3.8
2017-Oct-15 06:39N 54°47' W 001°08'1 5.4
2017-Oct-15 06:27N 54°48' W 001°09'0 0.7
2017-Oct-15 06:00N 54°48' W 001°09'0 0.1
2017-Oct-15 05:30N 54°48' W 001°09'0 0.1
2017-Oct-15 04:59N 54°48' W 001°09'0 0.0
2017-Oct-15 04:29N 54°48' W 001°09'0 0.0
2017-Oct-15 03:59N 54°48' W 001°09'0 0.0
2017-Oct-15 03:29N 54°48' W 001°09'0 0.0
2017-Oct-15 02:59N 54°48' W 001°09'0 0.0
2017-Oct-15 02:29N 54°48' W 001°09'0 0.0
2017-Oct-15 01:59N 54°48' W 001°09'0 0.0
2017-Oct-15 01:29N 54°48' W 001°09'0 0.0
2017-Oct-15 00:59N 54°48' W 001°09'0 0.0
2017-Oct-15 00:29N 54°48' W 001°09'0 0.1
2017-Oct-14 23:59N 54°48' W 001°09'0 0.1
2017-Oct-14 23:29N 54°48' W 001°09'0 0.1
2017-Oct-14 22:50N 54°48' W 001°09'0 0.1
2017-Oct-14 22:05N 54°48' W 001°09'0 0.1
2017-Oct-14 21:50N 54°48' W 001°09'1 3.0
2017-Oct-14 21:30N 54°48' W 001°08'3 5.5
2017-Oct-14 21:00N 54°48' W 001°03'3 6.0
2017-Oct-14 20:30N 54°49' W 000°58'3 5.9
2017-Oct-14 20:00N 54°49' W 000°53'3 5.6
2017-Oct-14 19:30N 54°50' W 000°48'3 5.6
2017-Oct-14 19:00N 54°50' W 000°43'3 5.4
2017-Oct-14 18:28N 54°51' W 000°38'2 3.7
2017-Oct-14 17:58N 54°52' W 000°35'1 2.5
2017-Oct-14 17:28N 54°53' W 000°34'2 4.1
2017-Oct-14 16:52N 54°54' W 000°30'  
2017-Oct-12 12:12N 57°23' E 007°37'3 8.7
2017-Oct-12 11:54N 57°25' E 007°41'15 8.7
2017-Oct-12 10:11N 57°31' E 008°06'2 9.0
2017-Oct-12 09:58N 57°32' E 008°10'19 9.1
2017-Oct-12 07:52N 57°37' E 008°44'60 4.8
2017-Oct-11 19:25N 57°53' E 010°32'2 4.2
2017-Oct-11 18:59N 57°53' E 010°35'2 4.5
2017-Oct-11 18:30N 57°52' E 010°38'2 4.4
2017-Oct-11 18:00N 57°50' E 010°41'2 4.9
2017-Oct-11 17:30N 57°49' E 010°45'3 5.0
2017-Oct-11 17:00N 57°47' E 010°48'8 0.5
2017-Oct-11 00:00N 57°39' E 010°42'0 0.0
2017-Oct-10 23:21N 57°39' E 010°42'0 0.0
2017-Oct-10 22:57N 57°39' E 010°42'0 0.0
2017-Oct-10 22:21N 57°39' E 010°42'0 0.0
2017-Oct-10 22:00N 57°39' E 010°42'0 0.0
2017-Oct-10 21:24N 57°39' E 010°42'0 0.0
2017-Oct-10 20:45N 57°39' E 010°42'0 0.1
2017-Oct-10 20:00N 57°39' E 010°42'0 0.0
2017-Oct-10 19:27N 57°39' E 010°42'0 0.0
2017-Oct-10 19:00N 57°39' E 010°41'0 0.1
2017-Oct-10 18:12N 57°40' E 010°41'0 0.1
2017-Oct-10 18:00N 57°40' E 010°41'0 0.1
2017-Oct-10 17:06N 57°40' E 010°41'0 0.1
2017-Oct-10 16:57N 57°40' E 010°41'0 0.0
2017-Oct-10 16:24N 57°40' E 010°41'0 0.0
2017-Oct-10 15:57N 57°40' E 010°41'0 0.0
2017-Oct-10 15:18N 57°40' E 010°41'0 0.0
2017-Oct-10 14:57N 57°40' E 010°41'0 0.0
2017-Oct-10 14:00N 57°40' E 010°41'0 0.0
2017-Oct-10 13:30N 57°40' E 010°41'0 0.0
2017-Oct-10 13:00N 57°40' E 010°41'  

Dump ship's entire track history